Time;durP1;ratioP1;P1;durP2;ratioP2;P2;SDS_P1;SDS_P2;PMS_P1;PMS_P2;Temp;Humidity;BMP_temperature;BMP_pressure;BME280_temperature;BME280_humidity;BME280_pressure;Samples;Min_cycle;Max_cycle;Signal;HPM_P1;HPM_P2
2022/10/14 00:00:59;;;;;;;171.88;99.20;;;12.30;99.90;;;;;;5076236;28;20063;-69
2022/10/14 00:03:25;;;;;;;181.30;98.38;;;12.30;99.90;;;;;;5076321;28;20432;-68
2022/10/14 00:05:51;;;;;;;166.73;94.97;;;12.30;99.90;;;;;;5057872;28;20085;-68
2022/10/14 00:08:17;;;;;;;168.05;97.57;;;12.20;99.90;;;;;;5076415;28;20036;-68
2022/10/14 00:10:43;;;;;;;172.70;98.13;;;12.20;99.90;;;;;;5076183;28;20044;-68
2022/10/14 00:13:09;;;;;;;156.90;92.03;;;12.20;99.90;;;;;;5076389;28;20032;-68
2022/10/14 00:15:39;;;;;;;160.88;92.30;;;12.20;99.90;;;;;;5076174;28;20043;-68
2022/10/14 00:18:06;;;;;;;153.38;89.05;;;12.10;99.90;;;;;;5063481;28;20129;-68
2022/10/14 00:20:33;;;;;;;168.95;90.57;;;12.10;99.90;;;;;;5091850;28;20381;-68
2022/10/14 00:22:59;;;;;;;160.48;91.50;;;12.20;99.90;;;;;;5096118;28;20054;-68
2022/10/14 00:25:25;;;;;;;165.32;91.32;;;12.20;99.90;;;;;;5096288;28;20035;-68
2022/10/14 00:27:51;;;;;;;164.82;93.82;;;12.20;99.90;;;;;;5096218;28;20477;-68
2022/10/14 00:30:18;;;;;;;157.15;90.10;;;12.20;99.90;;;;;;5077848;28;20120;-68
2022/10/14 00:32:44;;;;;;;158.85;88.50;;;12.30;99.90;;;;;;5096218;28;20024;-68
2022/10/14 00:35:10;;;;;;;154.15;86.20;;;12.40;99.90;;;;;;5096010;28;20111;-68
2022/10/14 00:37:36;;;;;;;175.20;93.65;;;12.50;99.90;;;;;;5077611;28;20044;-68
2022/10/14 00:40:03;;;;;;;168.45;92.35;;;12.50;99.90;;;;;;5077910;28;20036;-68
2022/10/14 00:42:33;;;;;;;163.07;92.20;;;12.60;99.90;;;;;;5096072;28;20456;-68
2022/10/14 00:45:10;;;;;;;171.82;91.85;;;12.60;99.90;;;;;;5095797;28;20077;-68
2022/10/14 00:47:37;;;;;;;172.98;89.82;;;12.50;99.90;;;;;;5095813;28;20024;-68
2022/10/14 00:50:08;;;;;;;164.38;90.20;;;12.50;99.90;;;;;;5077613;28;20027;-68
2022/10/14 00:52:34;;;;;;;160.35;88.22;;;12.50;99.90;;;;;;5095835;28;20386;-68
2022/10/14 00:55:16;;;;;;;170.10;92.30;;;12.60;99.90;;;;;;5077631;28;20024;-68
2022/10/14 00:57:43;;;;;;;170.77;92.55;;;12.50;99.90;;;;;;5077458;28;20161;-68
2022/10/14 01:00:12;;;;;;;171.77;92.53;;;12.60;99.90;;;;;;5095371;28;20032;-68
2022/10/14 01:02:39;;;;;;;168.82;90.13;;;12.70;99.90;;;;;;5095734;28;20108;-68
2022/10/14 01:05:07;;;;;;;164.65;88.72;;;12.60;99.90;;;;;;5077339;28;20519;-68
2022/10/14 01:07:33;;;;;;;158.05;86.93;;;12.60;99.90;;;;;;5095625;28;20150;-68
2022/10/14 01:10:32;;;;;;;157.05;89.88;;;12.60;99.90;;;;;;5077115;28;20070;-68
2022/10/14 01:13:33;;;;;;;159.68;87.15;;;12.50;99.90;;;;;;5095345;28;20020;-68
2022/10/14 01:16:18;;;;;;;162.07;90.07;;;12.60;99.90;;;;;;5060013;28;20547;-68
2022/10/14 01:19:29;;;;;;;162.45;90.70;;;12.50;99.90;;;;;;5088819;28;20043;-68
2022/10/14 01:22:19;;;;;;;158.45;85.75;;;12.60;99.90;;;;;;5061617;28;20076;-68
2022/10/14 01:25:18;;;;;;;154.30;83.57;;;12.50;99.90;;;;;;5059504;28;20028;-68
2022/10/14 01:28:13;;;;;;;155.00;85.22;;;12.70;99.90;;;;;;5074879;28;20126;-68
2022/10/14 01:30:52;;;;;;;151.88;83.85;;;12.70;99.90;;;;;;5074818;28;20042;-68
2022/10/14 01:33:24;;;;;;;148.77;83.63;;;12.70;99.90;;;;;;5073437;28;20372;-68
2022/10/14 01:35:56;;;;;;;155.60;82.55;;;12.60;99.90;;;;;;5074584;28;20048;-68
2022/10/14 01:38:29;;;;;;;148.73;82.32;;;12.70;99.90;;;;;;5074711;28;20028;-69
2022/10/14 01:41:12;;;;;;;148.57;82.68;;;12.70;99.90;;;;;;5073259;28;20482;-68
2022/10/14 01:43:40;;;;;;;140.45;78.95;;;12.80;99.90;;;;;;5073492;28;20462;-69
2022/10/14 01:46:09;;;;;;;150.77;79.95;;;12.80;99.90;;;;;;5074542;28;20048;-68
2022/10/14 01:48:48;;;;;;;150.32;81.13;;;12.80;99.90;;;;;;5073227;28;20028;-68
2022/10/14 01:51:27;;;;;;;155.75;82.28;;;12.90;99.90;;;;;;5073156;28;20033;-68
2022/10/14 01:54:07;;;;;;;162.93;84.40;;;12.80;99.90;;;;;;5074637;28;20039;-68
2022/10/14 01:56:34;;;;;;;156.93;83.43;;;12.90;99.90;;;;;;5074498;28;20092;-68
2022/10/14 01:59:02;;;;;;;159.30;82.78;;;12.90;99.90;;;;;;5073139;28;20036;-68
2022/10/14 02:01:30;;;;;;;163.93;84.95;;;12.80;99.90;;;;;;5072991;28;20032;-69
2022/10/14 02:03:55;;;;;;;164.43;83.45;;;12.70;99.90;;;;;;5074552;28;20484;-68
2022/10/14 02:06:31;;;;;;;174.10;87.72;;;12.70;99.90;;;;;;5073204;28;20478;-68
2022/10/14 02:09:03;;;;;;;188.60;89.65;;;12.70;99.90;;;;;;5074244;28;20354;-68
2022/10/14 02:11:41;;;;;;;183.20;91.30;;;12.80;99.90;;;;;;5074328;28;20027;-68
2022/10/14 02:14:27;;;;;;;176.15;85.15;;;12.80;99.90;;;;;;5073144;28;20028;-68
2022/10/14 02:17:09;;;;;;;175.48;84.55;;;12.90;99.90;;;;;;5072959;28;20036;-69
2022/10/14 02:19:54;;;;;;;154.30;77.43;;;12.80;99.90;;;;;;5089490;28;20046;-68
2022/10/14 02:22:49;;;;;;;164.07;81.63;;;12.80;99.90;;;;;;5096518;28;20031;-69
2022/10/14 02:25:20;;;;;;;146.35;78.63;;;12.80;99.90;;;;;;5111885;28;20393;-69
2022/10/14 02:27:49;;;;;;;153.15;80.30;;;12.90;99.90;;;;;;5114797;28;20456;-69
2022/10/14 02:30:16;;;;;;;149.43;79.18;;;12.80;99.90;;;;;;5117557;28;20020;-69
2022/10/14 02:32:44;;;;;;;152.20;80.68;;;12.80;99.90;;;;;;5100500;28;20024;-68
2022/10/14 02:35:14;;;;;;;152.40;79.25;;;12.80;99.90;;;;;;5118756;28;20377;-68
2022/10/14 02:37:40;;;;;;;156.15;81.18;;;12.80;99.90;;;;;;5100346;28;20089;-68
2022/10/14 02:40:15;;;;;;;162.30;82.18;;;12.90;99.90;;;;;;5118595;28;20034;-69
2022/10/14 02:42:41;;;;;;;160.30;82.97;;;12.90;99.90;;;;;;5118841;28;20065;-68
2022/10/14 02:45:08;;;;;;;157.48;81.15;;;13.00;99.90;;;;;;5118632;28;20038;-68
2022/10/14 02:47:34;;;;;;;151.05;81.40;;;12.90;99.90;;;;;;5100104;28;20481;-69
2022/10/14 02:50:00;;;;;;;151.30;80.95;;;12.90;99.90;;;;;;5118771;28;20026;-69
2022/10/14 02:52:26;;;;;;;158.50;80.50;;;12.90;99.90;;;;;;5100023;28;20136;-69
2022/10/14 02:54:52;;;;;;;159.68;82.80;;;12.90;99.90;;;;;;5118534;28;20073;-69
2022/10/14 02:57:18;;;;;;;147.75;80.20;;;13.00;99.90;;;;;;5118630;28;20024;-69
2022/10/14 02:59:44;;;;;;;153.02;77.68;;;13.00;99.90;;;;;;5099741;28;20032;-69
2022/10/14 03:02:10;;;;;;;148.68;76.88;;;13.10;99.90;;;;;;5099975;28;20031;-69
2022/10/14 03:04:39;;;;;;;151.13;77.07;;;13.10;99.90;;;;;;5099866;28;20024;-69
2022/10/14 03:07:06;;;;;;;147.13;76.95;;;13.10;99.90;;;;;;5099718;28;20066;-69
2022/10/14 03:09:37;;;;;;;134.30;72.45;;;13.10;99.90;;;;;;5100110;28;20042;-69
2022/10/14 03:12:04;;;;;;;129.15;71.53;;;13.10;99.90;;;;;;5099811;28;20038;-69
2022/10/14 03:14:30;;;;;;;128.75;71.30;;;13.10;99.90;;;;;;5099668;28;20343;-69
2022/10/14 03:16:56;;;;;;;129.80;72.18;;;13.10;99.90;;;;;;5099832;28;20036;-69
2022/10/14 03:19:24;;;;;;;127.25;69.40;;;13.10;99.90;;;;;;5093383;28;20497;-68
2022/10/14 03:21:53;;;;;;;134.00;73.07;;;13.20;99.90;;;;;;5079185;28;20040;-69
2022/10/14 03:24:20;;;;;;;130.57;68.38;;;13.30;99.90;;;;;;5079465;28;20024;-69
2022/10/14 03:26:51;;;;;;;137.65;72.97;;;13.30;99.90;;;;;;5079222;28;20031;-69
2022/10/14 03:29:23;;;;;;;138.02;72.88;;;13.20;99.90;;;;;;5079117;28;20393;-69
2022/10/14 03:32:11;;;;;;;152.43;77.28;;;13.30;99.90;;;;;;5096702;28;20105;-68
2022/10/14 03:35:12;;;;;;;;;;;13.20;99.90;;;;;;5035038;28;20041;-68
2022/10/14 03:37:41;;;;;;;153.10;73.97;;;13.10;99.90;;;;;;5067594;28;19912;-68
2022/10/14 03:40:08;;;;;;;156.32;81.43;;;13.00;99.90;;;;;;5096972;28;20081;-68
2022/10/14 03:42:35;;;;;;;149.13;76.07;;;12.90;99.90;;;;;;5078167;28;20337;-69
2022/10/14 03:45:01;;;;;;;148.52;76.53;;;13.00;99.90;;;;;;5097256;28;20056;-69
2022/10/14 03:47:29;;;;;;;138.52;78.30;;;13.00;99.90;;;;;;5078755;28;20447;-69
2022/10/14 03:49:54;;;;;;;141.02;78.68;;;13.00;99.90;;;;;;5078508;28;20040;-69
2022/10/14 03:52:26;;;;;;;152.88;77.07;;;13.10;99.90;;;;;;5078733;28;20039;-69
2022/10/14 03:55:04;;;;;;;150.18;79.40;;;13.20;99.90;;;;;;5078716;28;20035;-69
2022/10/14 03:57:31;;;;;;;139.70;73.93;;;13.30;99.90;;;;;;5078567;28;20036;-69
2022/10/14 03:59:58;;;;;;;136.40;70.93;;;13.30;99.90;;;;;;5078560;28;20039;-69
2022/10/14 04:02:39;;;;;;;140.38;75.57;;;13.30;99.90;;;;;;5096717;28;20497;-69
2022/10/14 04:05:09;;;;;;;134.45;72.43;;;13.30;99.90;;;;;;5078618;28;20077;-68
2022/10/14 04:07:36;;;;;;;141.10;74.15;;;13.30;99.90;;;;;;5078611;28;20025;-68
2022/10/14 04:10:02;;;;;;;148.35;75.53;;;13.30;99.90;;;;;;5078277;28;20030;-69
2022/10/14 04:12:29;;;;;;;137.70;71.47;;;13.20;99.90;;;;;;5078431;28;20032;-68
2022/10/14 04:15:09;;;;;;;133.13;69.25;;;13.20;99.90;;;;;;5096611;28;20016;-68
2022/10/14 04:17:54;;;;;;;132.57;70.63;;;13.10;99.90;;;;;;5074938;28;20060;-69
2022/10/14 04:20:21;;;;;;;139.25;71.93;;;13.20;99.90;;;;;;5078196;28;20034;-69
2022/10/14 04:22:51;;;;;;;140.98;71.80;;;13.20;99.90;;;;;;5078366;28;20048;-69
2022/10/14 04:25:19;;;;;;;146.15;71.45;;;13.20;99.90;;;;;;5078020;28;20041;-68
2022/10/14 04:27:48;;;;;;;161.85;84.15;;;13.10;99.90;;;;;;5078303;28;20051;-68
2022/10/14 04:30:14;;;;;;;157.10;81.07;;;13.10;99.90;;;;;;5078131;28;20024;-68
2022/10/14 04:32:48;;;;;;;139.10;76.60;;;13.10;99.90;;;;;;5077854;28;20031;-68
2022/10/14 04:35:15;;;;;;;156.00;79.90;;;13.20;99.90;;;;;;5077911;28;20115;-68
2022/10/14 04:37:45;;;;;;;177.73;82.95;;;12.90;99.90;;;;;;5077930;28;20120;-68
2022/10/14 04:40:23;;;;;;;170.43;81.75;;;12.80;99.90;;;;;;5077853;28;20027;-68
2022/10/14 04:42:52;;;;;;;153.38;75.75;;;12.90;99.90;;;;;;5078124;28;20020;-68
2022/10/14 04:45:23;;;;;;;165.38;76.93;;;12.90;99.90;;;;;;5077593;28;20126;-68
2022/10/14 04:47:55;;;;;;;176.18;81.35;;;13.00;99.90;;;;;;5077481;28;20028;-68
2022/10/14 04:50:23;;;;;;;174.70;79.47;;;13.10;99.90;;;;;;5077499;28;20028;-69
2022/10/14 04:53:08;;;;;;;173.32;78.03;;;13.10;99.90;;;;;;5095690;28;20103;-69
2022/10/14 04:55:35;;;;;;;166.77;75.85;;;13.00;99.90;;;;;;5077556;28;20024;-68
2022/10/14 04:58:02;;;;;;;172.63;77.18;;;13.00;99.90;;;;;;5077566;28;20028;-68
2022/10/14 05:00:34;;;;;;;174.18;77.20;;;13.10;99.90;;;;;;5077439;28;20526;-68
2022/10/14 05:03:09;;;;;;;165.13;78.47;;;13.10;99.90;;;;;;5077467;28;20127;-68
2022/10/14 05:05:35;;;;;;;159.80;72.63;;;13.00;99.90;;;;;;5077346;28;20028;-68
2022/10/14 05:08:04;;;;;;;162.65;74.30;;;13.00;99.90;;;;;;5077311;28;20028;-68
2022/10/14 05:10:41;;;;;;;165.07;74.65;;;13.10;99.90;;;;;;5077182;28;20070;-68
2022/10/14 05:13:10;;;;;;;186.75;79.88;;;13.10;99.90;;;;;;5077309;28;20102;-68
2022/10/14 05:15:47;;;;;;;170.27;74.47;;;13.10;99.90;;;;;;5077059;28;20405;-68
2022/10/14 05:18:14;;;;;;;182.40;75.38;;;13.00;99.90;;;;;;5086827;28;20497;-68
2022/10/14 05:20:58;;;;;;;163.45;71.40;;;13.10;99.90;;;;;;5078309;28;20031;-68
2022/10/14 05:23:31;;;;;;;165.52;74.30;;;13.10;99.90;;;;;;5076833;28;20028;-69
2022/10/14 05:25:59;;;;;;;162.38;73.65;;;13.10;99.90;;;;;;5076843;28;20032;-68
2022/10/14 05:28:25;;;;;;;162.95;71.22;;;13.20;99.90;;;;;;5092886;28;20039;-69
2022/10/14 05:30:51;;;;;;;167.13;75.88;;;13.30;99.90;;;;;;5075555;28;20493;-68
2022/10/14 05:33:19;;;;;;;177.30;77.00;;;13.30;99.90;;;;;;5076663;28;20481;-69
2022/10/14 05:35:47;;;;;;;173.02;78.45;;;13.30;99.90;;;;;;5075519;28;20042;-68
2022/10/14 05:38:14;;;;;;;170.10;77.60;;;13.20;99.90;;;;;;5076387;28;20071;-68
2022/10/14 05:40:49;;;;;;;204.43;85.38;;;13.10;99.90;;;;;;5076810;28;20032;-68
2022/10/14 05:43:16;;;;;;;197.05;79.60;;;13.10;99.90;;;;;;5076467;28;20035;-68
2022/10/14 05:45:43;;;;;;;178.95;78.13;;;13.10;99.90;;;;;;5075527;28;20032;-68
2022/10/14 05:48:09;;;;;;;190.07;80.97;;;13.10;99.90;;;;;;5076517;28;20643;-68
2022/10/14 05:50:35;;;;;;;191.15;80.88;;;13.20;99.90;;;;;;5076234;28;20024;-68
2022/10/14 05:53:06;;;;;;;184.85;82.07;;;13.10;99.90;;;;;;5076319;28;20066;-68
2022/10/14 05:55:40;;;;;;;194.43;87.88;;;13.20;99.90;;;;;;5076422;28;20052;-69
2022/10/14 05:58:08;;;;;;;178.02;78.13;;;13.20;99.90;;;;;;5094196;28;20028;-67
2022/10/14 06:00:38;;;;;;;190.82;81.20;;;13.20;99.90;;;;;;5076290;28;20027;-68
2022/10/14 06:03:11;;;;;;;184.00;82.72;;;13.20;99.90;;;;;;5076128;28;20059;-69
2022/10/14 06:05:38;;;;;;;198.93;80.18;;;13.20;99.90;;;;;;5075568;28;20111;-70
2022/10/14 06:08:05;;;;;;;199.25;80.28;;;13.20;99.90;;;;;;5092029;28;20110;-70
2022/10/14 06:10:35;;;;;;;196.57;80.47;;;13.10;99.90;;;;;;5072425;28;20085;-70
2022/10/14 06:13:01;;;;;;;193.02;77.90;;;13.10;99.90;;;;;;5093526;28;20067;-70
2022/10/14 06:15:29;;;;;;;179.57;78.88;;;13.10;99.90;;;;;;5087437;28;20032;-70
2022/10/14 06:17:55;;;;;;;190.02;79.25;;;13.10;99.90;;;;;;5075945;28;20238;-69
2022/10/14 06:20:22;;;;;;;178.77;72.60;;;13.20;99.90;;;;;;5073845;28;20474;-70
2022/10/14 06:22:48;;;;;;;176.80;74.85;;;13.20;99.90;;;;;;5070827;28;20028;-69
2022/10/14 06:25:23;;;;;;;188.02;79.15;;;13.20;99.90;;;;;;5086753;28;20342;-69
2022/10/14 06:27:49;;;;;;;190.13;76.22;;;13.30;99.90;;;;;;5062093;28;20028;-69
2022/10/14 06:30:15;;;;;;;190.00;74.20;;;13.30;99.90;;;;;;5074578;28;20027;-69
2022/10/14 06:32:41;;;;;;;172.18;74.80;;;13.40;99.90;;;;;;5060918;28;20032;-69
2022/10/14 06:35:08;;;;;;;180.57;77.05;;;13.40;99.90;;;;;;5080725;28;20070;-69
2022/10/14 06:37:34;;;;;;;202.00;79.80;;;13.40;99.90;;;;;;5089217;28;20060;-69
2022/10/14 06:40:00;;;;;;;194.00;76.60;;;13.50;99.90;;;;;;5094146;28;20059;-69
2022/10/14 06:42:26;;;;;;;213.90;79.13;;;13.50;99.90;;;;;;5094828;28;20032;-69
2022/10/14 06:44:52;;;;;;;210.05;81.30;;;13.60;99.90;;;;;;5093547;28;20055;-69
2022/10/14 06:47:18;;;;;;;190.70;78.28;;;13.50;99.90;;;;;;5094639;28;20371;-69
2022/10/14 06:49:44;;;;;;;216.50;82.45;;;13.60;99.90;;;;;;5094817;28;20454;-69
2022/10/14 06:52:10;;;;;;;217.10;82.32;;;13.60;99.90;;;;;;5094452;28;20111;-69
2022/10/14 06:54:35;;;;;;;208.73;84.60;;;13.70;99.90;;;;;;5094107;28;20743;-69
2022/10/14 06:57:01;;;;;;;210.82;85.38;;;13.70;99.90;;;;;;5093417;28;20028;-69
2022/10/14 06:59:28;;;;;;;208.43;81.35;;;13.80;99.90;;;;;;5091454;28;20020;-69
2022/10/14 07:01:54;;;;;;;188.52;81.32;;;13.80;99.90;;;;;;5091445;28;20020;-69
2022/10/14 07:04:20;;;;;;;185.30;79.20;;;13.80;99.90;;;;;;5094292;28;20016;-70
2022/10/14 07:06:46;;;;;;;177.07;77.28;;;13.80;99.90;;;;;;5094448;28;20034;-69
2022/10/14 07:09:12;;;;;;;179.70;76.25;;;13.90;99.90;;;;;;5093179;28;20531;-70
2022/10/14 07:11:38;;;;;;;163.52;75.25;;;13.90;99.90;;;;;;5092073;28;20127;-70
2022/10/14 07:14:04;;;;;;;179.77;76.90;;;13.90;99.90;;;;;;5091767;28;20039;-69
2022/10/14 07:16:32;;;;;;;182.40;76.32;;;14.00;99.90;;;;;;5085058;28;20032;-69
2022/10/14 07:18:58;;;;;;;172.02;75.78;;;14.10;99.90;;;;;;5091250;28;20138;-69
2022/10/14 07:21:24;;;;;;;169.40;74.43;;;14.20;99.90;;;;;;5079439;28;20115;-69
2022/10/14 07:23:50;;;;;;;160.77;70.75;;;14.30;99.90;;;;;;5093543;28;20027;-69
2022/10/14 07:26:15;;;;;;;147.20;68.05;;;14.40;99.90;;;;;;5086837;28;20738;-70
2022/10/14 07:28:45;;;;;;;165.70;71.72;;;14.50;99.90;;;;;;5097953;28;20031;-70
2022/10/14 07:31:12;;;;;;;158.48;72.07;;;14.50;99.90;;;;;;5097564;28;20028;-70
2022/10/14 07:33:39;;;;;;;155.40;70.10;;;14.30;99.90;;;;;;5097937;28;20032;-70
2022/10/14 07:36:08;;;;;;;159.32;72.00;;;14.20;99.90;;;;;;5096676;28;20024;-69
2022/10/14 07:38:34;;;;;;;162.82;71.05;;;14.30;99.90;;;;;;5097569;28;20035;-70
2022/10/14 07:41:06;;;;;;;166.48;72.95;;;14.30;99.90;;;;;;5097745;28;20028;-70
2022/10/14 07:43:33;;;;;;;152.13;69.05;;;14.40;99.90;;;;;;5097671;28;20024;-70
2022/10/14 07:46:02;;;;;;;156.43;68.38;;;14.40;99.90;;;;;;5097529;28;20488;-69
2022/10/14 07:48:30;;;;;;;152.38;69.75;;;14.50;99.90;;;;;;5097644;28;20035;-70
2022/10/14 07:50:56;;;;;;;149.30;65.35;;;14.60;99.90;;;;;;5097520;28;20126;-69
2022/10/14 07:53:22;;;;;;;155.10;70.03;;;14.60;99.90;;;;;;5097595;28;20434;-70
2022/10/14 07:55:52;;;;;;;154.68;71.50;;;14.60;99.90;;;;;;5097554;28;20355;-69
2022/10/14 07:58:22;;;;;;;165.07;73.47;;;14.50;99.90;;;;;;5097096;28;20077;-70
2022/10/14 08:00:49;;;;;;;146.60;68.20;;;14.40;99.90;;;;;;5096528;28;20042;-70
2022/10/14 08:03:16;;;;;;;144.30;67.75;;;14.30;99.90;;;;;;5097246;28;20028;-69
2022/10/14 08:05:43;;;;;;;141.95;66.80;;;14.50;99.90;;;;;;5097304;28;20111;-70
2022/10/14 08:08:09;;;;;;;137.55;66.28;;;14.50;99.90;;;;;;5096635;28;20028;-69
2022/10/14 08:10:35;;;;;;;127.30;63.65;;;14.60;99.90;;;;;;5096848;28;20034;-69
2022/10/14 08:13:01;;;;;;;156.23;68.78;;;14.60;99.90;;;;;;5097000;28;20031;-69
2022/10/14 08:15:29;;;;;;;149.52;71.10;;;14.50;99.90;;;;;;5096132;28;20028;-69
2022/10/14 08:17:55;;;;;;;150.27;69.60;;;14.60;99.90;;;;;;5096050;28;20417;-69
2022/10/14 08:20:21;;;;;;;154.23;69.63;;;14.60;99.90;;;;;;5095652;28;20034;-69
2022/10/14 08:22:47;;;;;;;138.40;67.28;;;14.70;99.90;;;;;;5095934;28;20083;-69
2022/10/14 08:25:13;;;;;;;138.45;67.35;;;14.70;99.90;;;;;;5095572;28;20036;-69
2022/10/14 08:27:39;;;;;;;133.18;65.78;;;14.70;99.90;;;;;;5095578;28;20028;-70
2022/10/14 08:30:06;;;;;;;140.07;68.90;;;14.60;99.90;;;;;;5095698;28;20034;-69
2022/10/14 08:32:32;;;;;;;130.20;63.83;;;14.70;99.90;;;;;;5095973;28;20481;-69
2022/10/14 08:34:57;;;;;;;124.07;59.70;;;14.80;99.90;;;;;;5096087;28;20038;-69
2022/10/14 08:37:23;;;;;;;131.55;61.63;;;14.70;99.90;;;;;;5095669;28;20028;-69
2022/10/14 08:39:49;;;;;;;130.15;66.15;;;14.60;99.90;;;;;;5095858;28;20501;-69
2022/10/14 08:42:33;;;;;;;143.85;66.78;;;14.70;99.90;;;;;;5095880;28;20024;-69
2022/10/14 08:45:07;;;;;;;130.38;68.60;;;14.80;99.90;;;;;;5095740;28;20401;-69
2022/10/14 08:47:43;;;;;;;115.13;60.65;;;15.00;99.90;;;;;;5095722;28;20462;-69
2022/10/14 08:50:30;;;;;;;127.60;65.63;;;15.10;99.90;;;;;;5095787;28;20039;-69
2022/10/14 08:53:03;;;;;;;119.10;62.20;;;15.30;99.90;;;;;;5095339;28;20403;-68
2022/10/14 08:55:34;;;;;;;138.52;67.55;;;15.20;99.90;;;;;;5095640;28;20024;-69
2022/10/14 08:58:24;;;;;;;118.97;62.95;;;15.20;99.90;;;;;;5095151;28;20059;-69
2022/10/14 09:00:52;;;;;;;127.35;64.32;;;15.40;99.90;;;;;;5094670;28;20051;-69
2022/10/14 09:03:31;;;;;;;127.10;62.53;;;15.60;99.90;;;;;;5091978;28;20107;-69
2022/10/14 09:06:01;;;;;;;110.53;58.40;;;15.70;99.90;;;;;;5095322;28;20024;-69
2022/10/14 09:08:41;;;;;;;140.45;66.95;;;15.90;99.90;;;;;;5095990;28;20043;-69
2022/10/14 09:11:20;;;;;;;139.23;68.63;;;15.80;99.90;;;;;;5086551;28;20521;-69
2022/10/14 09:13:50;;;;;;;123.93;64.32;;;15.50;99.90;;;;;;5090641;28;20028;-69
2022/10/14 09:16:21;;;;;;;131.40;64.07;;;15.70;99.90;;;;;;5087643;28;20067;-69
2022/10/14 09:19:17;;;;;;;137.73;65.82;;;15.80;99.90;;;;;;5087306;28;20496;-71
2022/10/14 09:21:52;;;;;;;139.95;67.03;;;15.90;99.90;;;;;;5085962;28;20382;-66
2022/10/14 09:24:23;;;;;;;143.85;68.47;;;15.90;99.90;;;;;;5087901;28;20020;-65
2022/10/14 09:27:01;;;;;;;129.68;66.15;;;15.90;99.90;;;;;;5089488;28;20108;-65
2022/10/14 09:29:29;;;;;;;126.22;63.90;;;16.10;99.90;;;;;;5077440;28;20505;-66
2022/10/14 09:32:04;;;;;;;125.68;60.58;;;16.30;99.90;;;;;;5089912;28;20072;-65
2022/10/14 09:34:39;;;;;;;120.50;64.47;;;16.60;99.90;;;;;;5092473;28;20021;-66
2022/10/14 09:37:49;;;;;;;133.65;66.78;;;16.50;99.90;;;;;;5092991;28;20024;-65
2022/10/14 09:44:21;;;;;;;139.15;64.97;;;16.90;99.90;;;;;;5088245;28;20184;-65
2022/10/14 09:47:00;;;;;;;124.80;58.60;;;17.20;99.90;;;;;;5093684;28;20024;-65
2022/10/14 09:49:45;;;;;;;112.32;56.80;;;17.20;99.90;;;;;;5094227;28;20032;-65
2022/10/14 09:52:24;;;;;;;120.25;57.85;;;17.10;99.90;;;;;;5093498;28;20035;-65
2022/10/14 09:54:54;;;;;;;122.93;59.33;;;17.20;99.90;;;;;;5094342;28;20025;-65
2022/10/14 09:57:20;;;;;;;121.53;58.45;;;17.30;99.90;;;;;;5091502;28;20111;-65
2022/10/14 09:59:54;;;;;;;127.95;59.38;;;17.30;99.90;;;;;;5088038;28;20582;-65
2022/10/14 10:02:23;;;;;;;99.82;55.30;;;17.50;99.90;;;;;;5093069;28;20017;-65
2022/10/14 10:04:51;;;;;;;105.97;54.17;;;17.60;99.90;;;;;;5094314;28;20286;-65
2022/10/14 10:07:32;;;;;;;119.97;60.47;;;17.60;99.90;;;;;;5094245;28;20097;-65
2022/10/14 10:10:16;;;;;;;121.60;60.47;;;17.70;99.90;;;;;;5094093;28;20035;-65
2022/10/14 10:12:45;;;;;;;106.78;54.20;;;17.80;99.90;;;;;;5094146;28;20088;-65
2022/10/14 10:15:18;;;;;;;110.03;58.30;;;17.80;99.90;;;;;;5094360;28;20107;-65
2022/10/14 10:17:46;;;;;;;104.90;54.45;;;17.80;99.90;;;;;;5094303;28;20097;-65
2022/10/14 10:20:32;;;;;;;100.25;56.25;;;17.80;99.90;;;;;;5094039;28;20032;-65
2022/10/14 10:23:18;;;;;;;106.63;55.63;;;18.10;99.90;;;;;;5094050;28;20024;-66
2022/10/14 10:25:44;;;;;;;95.05;53.45;;;18.30;99.90;;;;;;5094268;28;20088;-65
2022/10/14 10:28:29;;;;;;;103.75;56.30;;;18.40;99.90;;;;;;5094063;28;20032;-65
2022/10/14 10:31:01;;;;;;;92.70;51.95;;;18.50;99.90;;;;;;5094074;28;20025;-65
2022/10/14 10:33:36;;;;;;;109.45;58.83;;;18.60;99.90;;;;;;5086220;28;20084;-65
2022/10/14 10:36:27;;;;;;;95.32;54.60;;;18.90;99.90;;;;;;5082733;28;20111;-66
2022/10/14 10:39:00;;;;;;;99.35;54.90;;;19.20;99.90;;;;;;5078690;28;20092;-65
2022/10/14 10:41:29;;;;;;;89.00;51.33;;;19.30;99.80;;;;;;5082563;28;20536;-66
2022/10/14 10:44:29;;;;;;;92.60;53.28;;;19.30;99.90;;;;;;5083948;28;20020;-66
2022/10/14 10:47:13;;;;;;;87.10;51.47;;;19.50;99.70;;;;;;5085134;28;20386;-65
2022/10/14 10:49:48;;;;;;;89.38;51.22;;;19.70;99.90;;;;;;5085978;28;20107;-66
2022/10/14 10:52:17;;;;;;;102.05;56.70;;;20.30;97.60;;;;;;5097843;28;20032;-66
2022/10/14 10:55:00;;;;;;;108.85;60.45;;;20.60;95.50;;;;;;5089601;28;20027;-66
2022/10/14 10:57:51;;;;;;;110.65;61.00;;;20.90;94.00;;;;;;5082727;28;20452;-65
2022/10/14 11:00:22;;;;;;;107.90;60.75;;;21.20;94.40;;;;;;5089907;28;20111;-66
2022/10/14 11:03:06;;;;;;;101.28;56.63;;;20.80;93.50;;;;;;5087460;28;20038;-66
2022/10/14 11:05:42;;;;;;;96.13;55.92;;;21.10;93.40;;;;;;5097738;28;20481;-66
2022/10/14 11:14:22;;;;;;;109.68;60.47;;;21.70;91.00;;;;;;5097390;28;20111;-66
2022/10/14 11:17:19;;;;;;;104.55;57.55;;;21.70;90.10;;;;;;5089307;28;20035;-66
2022/10/14 11:20:04;;;;;;;81.82;46.88;;;22.60;88.50;;;;;;5097331;28;20104;-66
2022/10/14 11:22:53;;;;;;;88.57;49.80;;;22.40;87.10;;;;;;5097309;28;20036;-66
2022/10/14 11:25:56;;;;;;;92.65;53.25;;;22.90;82.50;;;;;;5067664;28;20044;-66
2022/10/14 11:28:44;;;;;;;81.10;48.90;;;23.00;82.10;;;;;;5088296;28;20028;-66
2022/10/14 11:31:50;;;;;;;81.00;45.67;;;24.00;80.60;;;;;;5084095;28;20086;-66
2022/10/14 11:34:55;;;;;;;78.97;45.38;;;23.80;75.70;;;;;;5091810;28;20188;-66
2022/10/14 11:37:52;;;;;;;68.05;42.88;;;24.30;75.40;;;;;;5092291;28;20032;-66
2022/10/14 11:40:33;;;;;;;69.60;42.17;;;24.40;73.70;;;;;;5077063;28;20355;-66
2022/10/14 11:43:12;;;;;;;72.47;43.13;;;23.60;76.40;;;;;;5079710;28;20035;-66
2022/10/14 11:46:17;;;;;;;73.68;41.70;;;24.30;73.70;;;;;;5085448;28;20165;-66
2022/10/14 11:48:50;;;;;;;61.13;38.42;;;24.00;72.10;;;;;;5082859;28;20024;-67
2022/10/14 11:51:22;;;;;;;73.32;41.50;;;24.30;73.50;;;;;;5087458;28;20051;-66
2022/10/14 11:53:56;;;;;;;62.72;38.58;;;24.30;70.50;;;;;;5093464;28;20548;-66
2022/10/14 11:56:44;;;;;;;64.80;42.15;;;23.60;72.40;;;;;;5094506;28;20024;-66
2022/10/14 11:59:39;;;;;;;65.15;40.15;;;23.50;73.90;;;;;;5093127;28;20572;-66
2022/10/14 12:02:22;;;;;;;65.38;41.15;;;22.90;73.30;;;;;;5089188;28;20044;-66
2022/10/14 12:05:17;;;;;;;63.85;39.80;;;23.20;74.50;;;;;;5094753;28;20028;-66
2022/10/14 12:08:09;;;;;;;65.60;38.70;;;22.70;74.90;;;;;;5083119;28;20387;-66
2022/10/14 12:10:45;;;;;;;72.03;37.17;;;22.90;74.40;;;;;;5089093;28;20063;-66
2022/10/14 12:13:17;;;;;;;68.40;39.30;;;23.10;75.00;;;;;;5084259;28;20050;-66
2022/10/14 12:15:50;;;;;;;53.90;33.83;;;23.40;73.90;;;;;;5088404;28;20070;-66
2022/10/14 12:18:21;;;;;;;46.95;32.10;;;23.30;72.30;;;;;;5084610;28;20551;-66
2022/10/14 12:21:20;;;;;;;69.03;34.63;;;22.90;72.30;;;;;;5087874;28;20028;-67
2022/10/14 12:23:54;;;;;;;69.18;37.38;;;23.20;72.70;;;;;;5087123;28;20063;-66
2022/10/14 12:26:49;;;;;;;69.05;33.55;;;22.90;73.90;;;;;;5093140;28;20020;-66
2022/10/14 12:29:24;;;;;;;57.70;35.80;;;23.80;72.40;;;;;;5086607;28;20402;-66
2022/10/14 12:32:07;;;;;;;46.33;30.38;;;23.40;71.70;;;;;;5083321;28;20085;-66
2022/10/14 12:34:45;;;;;;;72.78;35.65;;;23.40;71.50;;;;;;5091490;28;20111;-66
2022/10/14 12:37:23;;;;;;;53.78;29.95;;;23.60;72.30;;;;;;5095207;28;20078;-66
2022/10/14 12:39:53;;;;;;;38.45;25.30;;;24.00;71.20;;;;;;5086662;28;20366;-66
2022/10/14 12:42:20;;;;;;;46.20;25.17;;;24.20;70.40;;;;;;5084823;28;20477;-66
2022/10/14 12:44:51;;;;;;;42.55;26.33;;;24.50;68.50;;;;;;5084577;28;20465;-66
2022/10/14 12:47:33;;;;;;;41.08;26.90;;;24.50;67.40;;;;;;5093068;28;20017;-66
2022/10/14 12:50:03;;;;;;;50.45;28.85;;;24.60;66.10;;;;;;5085311;28;20035;-66
2022/10/14 12:52:37;;;;;;;48.60;27.27;;;24.80;66.60;;;;;;5076170;28;20024;-66
2022/10/14 12:55:15;;;;;;;44.20;27.08;;;25.00;67.90;;;;;;5081211;28;20032;-66
2022/10/14 12:57:41;;;;;;;38.08;24.02;;;24.80;66.40;;;;;;5095613;28;20110;-66